createdAt,value
2023-02-17T00:03:02.814Z,17.70
2023-02-17T00:07:04.490Z,14.95
2023-02-17T00:11:06.609Z,13.98
2023-02-17T00:15:08.732Z,17.17
2023-02-17T00:19:25.594Z,14.68
2023-02-17T00:23:27.285Z,16.47
2023-02-17T00:27:28.950Z,16.62
2023-02-17T00:31:30.784Z,14.90
2023-02-17T00:35:32.538Z,14.68
2023-02-17T00:39:34.189Z,13.88
2023-02-17T00:43:35.937Z,14.15
2023-02-17T00:47:37.607Z,17.25
2023-02-17T00:51:39.251Z,13.98
2023-02-17T00:55:41.491Z,15.88
2023-02-17T00:59:43.333Z,14.32
2023-02-17T01:03:44.989Z,13.75
2023-02-17T01:07:46.726Z,16.70
2023-02-17T01:11:48.390Z,16.40
2023-02-17T01:15:53.210Z,19.10
2023-02-17T01:19:54.904Z,16.90
2023-02-17T01:23:58.603Z,13.65
2023-02-17T01:28:00.193Z,14.18
2023-02-17T01:32:01.895Z,17.95
2023-02-17T01:36:05.866Z,14.80
2023-02-17T01:40:08.228Z,16.77
2023-02-17T01:44:32.089Z,16.50
2023-02-17T01:48:42.150Z,15.50
2023-02-17T01:52:44.684Z,16.42
2023-02-17T01:56:48.300Z,16.30
2023-02-17T02:00:52.996Z,16.60
2023-02-17T02:04:54.911Z,14.82
2023-02-17T02:09:17.193Z,14.27
2023-02-17T02:13:19.074Z,12.40
2023-02-17T02:17:29.117Z,18.55
2023-02-17T02:21:51.405Z,13.88
2023-02-17T02:26:23.962Z,12.35
2023-02-17T02:30:25.613Z,14.05
2023-02-17T02:34:45.227Z,14.30
2023-02-17T02:39:11.684Z,14.55
2023-02-17T02:43:14.471Z,15.00
2023-02-17T02:47:31.359Z,12.82
2023-02-17T02:51:47.536Z,10.30
2023-02-17T02:56:07.730Z,13.85
2023-02-17T03:00:29.411Z,12.45
2023-02-17T03:04:42.759Z,12.15
2023-02-17T03:08:53.008Z,12.25
2023-02-17T03:12:55.472Z,10.25
2023-02-17T03:16:58.336Z,11.30
2023-02-17T03:21:13.026Z,11.57
2023-02-17T03:25:15.763Z,13.18
2023-02-17T03:29:17.629Z,11.73
2023-02-17T03:33:19.936Z,11.05
2023-02-17T03:37:21.576Z,10.57
2023-02-17T03:41:23.316Z,9.70
2023-02-17T03:45:25.188Z,11.15
2023-02-17T03:49:26.840Z,9.18
2023-02-17T03:53:28.586Z,10.70
2023-02-17T03:57:31.754Z,10.77
2023-02-17T04:01:33.601Z,10.57
2023-02-17T04:05:35.256Z,10.13
2023-02-17T04:09:36.857Z,11.02
2023-02-17T04:13:38.831Z,11.48
2023-02-17T04:17:40.455Z,14.27
2023-02-17T04:21:42.130Z,12.27
2023-02-17T04:25:44.546Z,11.12
2023-02-17T04:29:46.186Z,10.93
2023-02-17T04:33:48.119Z,11.10
2023-02-17T04:37:49.786Z,12.32
2023-02-17T04:41:51.428Z,12.57
2023-02-17T04:45:53.720Z,10.82
2023-02-17T04:49:55.392Z,9.93
2023-02-17T04:53:57.062Z,11.80
2023-02-17T04:57:58.785Z,11.18
2023-02-17T05:02:00.467Z,11.98
2023-02-17T05:06:02.106Z,11.82
2023-02-17T05:10:04.091Z,11.20
2023-02-17T05:14:05.784Z,11.15
2023-02-17T05:18:07.389Z,10.77
2023-02-17T05:22:09.007Z,14.52
2023-02-17T05:26:10.776Z,11.18
2023-02-17T05:30:12.939Z,13.27
2023-02-17T05:34:14.556Z,11.20
2023-02-17T05:38:16.301Z,12.60
2023-02-17T05:42:17.979Z,11.60
2023-02-17T05:46:19.669Z,10.85
2023-02-17T05:50:21.503Z,10.20
2023-02-17T05:54:23.150Z,10.00
2023-02-17T05:58:24.914Z,9.25
2023-02-17T06:02:26.744Z,11.23
2023-02-17T06:06:28.372Z,9.02
2023-02-17T06:10:30.060Z,11.00
2023-02-17T06:14:31.723Z,10.98
2023-02-17T06:18:33.492Z,10.55
2023-02-17T06:22:35.482Z,11.68
2023-02-17T06:26:37.315Z,9.07
2023-02-17T06:30:38.932Z,9.00
2023-02-17T06:34:40.576Z,8.90
2023-02-17T06:38:42.233Z,10.77
2023-02-17T06:42:43.896Z,10.48
2023-02-17T06:46:46.810Z,11.57
2023-02-17T06:50:51.378Z,9.52
2023-02-17T06:54:53.160Z,10.50
2023-02-17T06:58:54.790Z,12.02
2023-02-17T07:02:56.752Z,10.30
2023-02-17T07:06:58.405Z,10.63
2023-02-17T07:11:04.151Z,10.50
2023-02-17T07:15:06.017Z,13.30
2023-02-17T07:19:07.666Z,9.48
2023-02-17T07:23:09.372Z,10.25
2023-02-17T07:27:11.107Z,12.82
2023-02-17T07:31:15.720Z,9.63
2023-02-17T07:35:17.751Z,11.80
2023-02-17T07:39:19.374Z,10.82
2023-02-17T07:43:21.022Z,11.80
2023-02-17T07:47:22.642Z,9.02
2023-02-17T07:51:24.910Z,10.02
2023-02-17T07:55:26.561Z,9.10
2023-02-17T07:59:28.267Z,10.57
2023-02-17T08:03:29.874Z,10.43
2023-02-17T08:07:32.898Z,9.82
2023-02-17T08:11:53.628Z,8.73
2023-02-17T08:15:55.287Z,9.45
2023-02-17T08:19:56.995Z,11.18
2023-02-17T08:23:58.824Z,8.85
2023-02-17T08:28:01.003Z,12.07
2023-02-17T08:32:02.852Z,9.70
2023-02-17T08:36:08.278Z,8.77
2023-02-17T08:40:10.183Z,10.30
2023-02-17T08:44:15.419Z,9.00
2023-02-17T08:48:17.103Z,11.32
2023-02-17T08:52:19.135Z,9.32
2023-02-17T08:56:26.144Z,13.20
2023-02-17T09:00:27.811Z,8.65
2023-02-17T09:04:29.590Z,8.23
2023-02-17T09:08:31.675Z,8.20
2023-02-17T09:12:33.417Z,9.85
2023-02-17T09:16:35.458Z,9.60
2023-02-17T09:20:39.350Z,9.23
2023-02-17T09:24:41.034Z,10.75
2023-02-17T09:28:43.032Z,7.47
2023-02-17T09:32:45.249Z,9.52
2023-02-17T09:36:47.157Z,9.63
2023-02-17T09:40:50.482Z,7.47
2023-02-17T09:45:03.928Z,9.05
2023-02-17T09:49:22.397Z,8.52
2023-02-17T09:53:34.343Z,9.85
2023-02-17T09:57:42.753Z,6.87
2023-02-17T10:01:46.114Z,6.95
2023-02-17T10:06:11.394Z,10.23
2023-02-17T10:10:41.878Z,8.55
2023-02-17T10:14:51.641Z,7.20
2023-02-17T10:19:12.013Z,6.82
2023-02-17T10:23:18.866Z,7.03
2023-02-17T10:27:28.528Z,5.90
2023-02-17T10:32:23.135Z,7.25
2023-02-17T10:36:33.926Z,5.43
2023-02-17T10:40:35.655Z,6.65
2023-02-17T10:44:37.829Z,6.57
2023-02-17T10:48:48.051Z,7.85
2023-02-17T10:52:50.779Z,8.25
2023-02-17T10:56:54.837Z,6.53
2023-02-17T11:00:57.272Z,9.18
2023-02-17T11:04:59.900Z,7.80
2023-02-17T11:09:05.952Z,7.30
2023-02-17T11:13:30.838Z,8.32
2023-02-17T11:17:39.226Z,7.00
2023-02-17T11:21:44.029Z,10.13
2023-02-17T11:26:18.603Z,6.78
2023-02-17T11:30:20.688Z,6.60
2023-02-17T11:34:26.573Z,7.20
2023-02-17T11:38:40.254Z,6.45
2023-02-17T11:42:41.950Z,6.35
2023-02-17T11:47:08.121Z,5.75
2023-02-17T11:51:15.938Z,5.30
2023-02-17T11:55:36.920Z,6.93
2023-02-17T12:00:19.640Z,5.85
2023-02-17T12:04:32.831Z,3.65
2023-02-17T12:08:50.929Z,4.45
2023-02-17T12:13:29.109Z,8.52
2023-02-17T12:17:39.932Z,4.07
2023-02-17T12:21:50.631Z,5.22
2023-02-17T12:26:13.872Z,5.68
2023-02-17T12:30:51.559Z,5.15
2023-02-17T12:35:01.305Z,7.15
2023-02-17T12:39:21.137Z,6.47
2023-02-17T12:43:29.190Z,4.97
2023-02-17T12:47:58.900Z,4.82
2023-02-17T12:52:29.087Z,3.95
2023-02-17T12:56:41.618Z,4.70
2023-02-17T13:00:49.358Z,4.20
2023-02-17T13:05:00.017Z,5.93
2023-02-17T13:09:25.040Z,4.30
2023-02-17T13:13:29.699Z,7.35
2023-02-17T13:17:39.002Z,6.40
2023-02-17T13:21:53.074Z,6.28
2023-02-17T13:26:09.083Z,5.55
2023-02-17T13:30:24.348Z,4.85
2023-02-17T13:34:32.782Z,3.00
2023-02-17T13:38:34.526Z,2.87
2023-02-17T13:42:36.190Z,6.85
2023-02-17T13:46:38.042Z,6.20
2023-02-17T13:50:55.421Z,3.42
2023-02-17T13:55:03.932Z,3.20
2023-02-17T13:59:10.393Z,4.15
2023-02-17T14:03:28.845Z,6.13
2023-02-17T14:07:35.137Z,2.58
2023-02-17T14:11:36.854Z,3.23
2023-02-17T14:15:48.488Z,2.47
2023-02-17T14:19:51.382Z,3.90
2023-02-17T14:23:55.444Z,4.37
2023-02-17T14:27:57.269Z,4.30
2023-02-17T14:31:58.959Z,2.85
2023-02-17T14:36:04.332Z,5.78
2023-02-17T14:40:15.341Z,2.85
2023-02-17T14:44:17.004Z,2.17
2023-02-17T14:48:18.761Z,4.07
2023-02-17T14:52:23.753Z,2.55
2023-02-17T14:56:34.982Z,3.35
2023-02-17T15:00:36.585Z,2.70
2023-02-17T15:04:38.258Z,1.65
2023-02-17T15:08:40.039Z,2.75
2023-02-17T15:12:41.700Z,1.62
2023-02-17T15:16:44.527Z,2.62
2023-02-17T15:20:49.983Z,4.00
2023-02-17T15:24:51.872Z,2.30
2023-02-17T15:28:53.619Z,3.90
2023-02-17T15:32:55.274Z,5.95
2023-02-17T15:36:57.647Z,3.20
2023-02-17T15:40:59.298Z,3.20
2023-02-17T15:45:00.905Z,5.12
2023-02-17T15:49:02.639Z,3.37
2023-02-17T15:53:04.316Z,4.15
2023-02-17T15:57:10.293Z,8.65
2023-02-17T16:01:31.518Z,6.00
2023-02-17T16:05:33.470Z,6.85
2023-02-17T16:09:35.114Z,3.92
2023-02-17T16:13:36.843Z,4.10
2023-02-17T16:17:38.726Z,6.30
2023-02-17T16:21:40.353Z,6.97
2023-02-17T16:25:45.135Z,4.87
2023-02-17T16:29:47.156Z,4.15
2023-02-17T16:33:48.954Z,3.33
2023-02-17T16:38:11.606Z,4.78
2023-02-17T16:42:15.164Z,4.55
2023-02-17T16:46:31.093Z,5.95
2023-02-17T16:50:34.671Z,4.30
2023-02-17T16:54:36.325Z,4.03
2023-02-17T16:58:38.451Z,5.05
2023-02-17T17:02:41.303Z,5.45
2023-02-17T17:06:46.927Z,5.15
2023-02-17T17:10:49.256Z,3.75
2023-02-17T17:14:50.862Z,4.65
2023-02-17T17:18:52.548Z,4.55
2023-02-17T17:22:54.311Z,4.22
2023-02-17T17:26:56.021Z,6.82
2023-02-17T17:30:57.711Z,5.68
2023-02-17T17:34:59.437Z,7.57
2023-02-17T17:39:02.302Z,6.20
2023-02-17T17:43:03.905Z,6.65
2023-02-17T17:47:05.691Z,8.40
2023-02-17T17:51:07.635Z,7.70
2023-02-17T17:55:09.450Z,5.78
2023-02-17T17:59:12.673Z,5.43
2023-02-17T18:03:14.281Z,5.43
2023-02-17T18:07:16.506Z,5.28
2023-02-17T18:11:20.064Z,4.68
2023-02-17T18:15:21.765Z,4.37
2023-02-17T18:19:23.483Z,4.75
2023-02-17T18:23:25.155Z,6.32
2023-02-17T18:27:26.896Z,5.18
2023-02-17T18:31:29.641Z,5.43
2023-02-17T18:35:38.466Z,5.50
2023-02-17T18:39:40.126Z,5.15
2023-02-17T18:43:41.717Z,7.68
2023-02-17T18:47:43.878Z,5.68
2023-02-17T18:51:45.612Z,5.65
2023-02-17T18:55:47.349Z,4.80
2023-02-17T18:59:50.044Z,5.15
2023-02-17T19:03:51.944Z,5.68
2023-02-17T19:07:53.631Z,6.22
2023-02-17T19:11:55.364Z,6.70
2023-02-17T19:16:06.224Z,5.85
2023-02-17T19:20:08.529Z,5.95
2023-02-17T19:24:10.744Z,6.75
2023-02-17T19:28:12.892Z,6.12
2023-02-17T19:32:14.781Z,6.15
2023-02-17T19:36:19.114Z,8.88
2023-02-17T19:40:20.882Z,6.15
2023-02-17T19:44:22.627Z,10.25
2023-02-17T19:48:24.487Z,7.78
2023-02-17T19:52:27.123Z,9.40
2023-02-17T19:56:31.621Z,8.98
2023-02-17T20:00:33.292Z,8.88
2023-02-17T20:04:34.970Z,8.13
2023-02-17T20:08:37.509Z,9.63
2023-02-17T20:12:39.216Z,7.60
2023-02-17T20:16:41.018Z,8.90
2023-02-17T20:20:45.924Z,9.77
2023-02-17T20:24:47.549Z,8.63
2023-02-17T20:28:49.484Z,11.07
2023-02-17T20:32:51.110Z,8.82
2023-02-17T20:36:53.194Z,9.68
2023-02-17T20:40:55.267Z,8.93
2023-02-17T20:44:57.098Z,8.95
2023-02-17T20:48:58.820Z,8.57
2023-02-17T20:53:00.659Z,9.95
2023-02-17T20:57:02.406Z,8.88
2023-02-17T21:01:04.131Z,10.55
2023-02-17T21:05:06.358Z,8.75
2023-02-17T21:09:13.571Z,10.48
2023-02-17T21:17:18.593Z,11.00
2023-02-17T21:21:20.751Z,10.80
2023-02-17T21:25:22.692Z,10.73
2023-02-17T21:29:24.396Z,10.07
2023-02-17T21:33:26.100Z,10.07
2023-02-17T21:37:27.744Z,11.05
2023-02-17T21:41:31.709Z,9.93
2023-02-17T21:45:38.157Z,10.00
2023-02-17T21:49:39.885Z,10.37
2023-02-17T21:53:41.586Z,11.18
2023-02-17T21:57:43.287Z,9.82
2023-02-17T22:01:44.906Z,10.32
2023-02-17T22:05:46.654Z,11.95
2023-02-17T22:09:48.383Z,13.38
2023-02-17T22:13:52.995Z,10.52
2023-02-17T22:17:54.616Z,10.82
2023-02-17T22:21:56.256Z,10.25
2023-02-17T22:25:57.897Z,11.12
2023-02-17T22:29:59.608Z,10.73
2023-02-17T22:34:03.994Z,10.25
2023-02-17T22:38:05.618Z,10.45
2023-02-17T22:42:07.283Z,11.52
2023-02-17T22:46:10.660Z,10.60
2023-02-17T22:50:12.556Z,10.25
2023-02-17T22:54:14.197Z,11.60
2023-02-17T22:58:15.845Z,11.95
2023-02-17T23:02:17.552Z,11.90
2023-02-17T23:06:29.383Z,12.15
2023-02-17T23:10:31.331Z,13.00
2023-02-17T23:14:36.250Z,13.23
2023-02-17T23:18:38.572Z,13.62
2023-02-17T23:22:40.578Z,13.85
2023-02-17T23:26:42.635Z,10.98
2023-02-17T23:30:46.630Z,13.05
2023-02-17T23:34:48.290Z,13.95
2023-02-17T23:38:49.928Z,14.02
2023-02-17T23:42:51.539Z,12.07
2023-02-17T23:46:53.195Z,13.15
2023-02-17T23:50:59.587Z,12.43
2023-02-17T23:55:01.360Z,14.53
2023-02-17T23:59:03.744Z,14.82
